Time;durP1;ratioP1;P1;durP2;ratioP2;P2;SDS_P1;SDS_P2;PMS_P1;PMS_P2;Temp;Humidity;BMP_temperature;BMP_pressure;BME280_temperature;BME280_humidity;BME280_pressure;Samples;Min_cycle;Max_cycle;Signal;HPM_P1;HPM_P2
2021/08/14 00:02:14;;;;;;;9.00;8.17;;;19.60;99.90;;;;;;6090434;23;20617;-92
2021/08/14 00:04:41;;;;;;;8.53;7.50;;;19.70;99.90;;;;;;6087412;23;20933;-92
2021/08/14 00:07:09;;;;;;;9.83;8.93;;;19.60;99.90;;;;;;6086182;23;20588;-92
2021/08/14 00:09:36;;;;;;;8.70;8.10;;;19.60;99.90;;;;;;6084832;23;20652;-92
2021/08/14 00:12:04;;;;;;;9.07;8.30;;;19.60;99.90;;;;;;6089192;23;20649;-92
2021/08/14 00:14:31;;;;;;;8.73;7.93;;;19.60;99.90;;;;;;6092458;23;20708;-92
2021/08/14 00:16:57;;;;;;;8.63;7.83;;;19.50;99.90;;;;;;6090878;23;20689;-92
2021/08/14 00:19:24;;;;;;;8.37;7.70;;;19.50;99.90;;;;;;6090897;23;20573;-92
2021/08/14 00:21:51;;;;;;;8.73;7.93;;;19.50;99.90;;;;;;6093315;23;20673;-93
2021/08/14 00:24:20;;;;;;;8.17;7.50;;;19.40;99.90;;;;;;6092836;23;20943;-93
2021/08/14 00:26:46;;;;;;;8.67;7.97;;;19.40;99.90;;;;;;6092297;23;21139;-92
2021/08/14 00:29:14;;;;;;;8.17;7.47;;;19.40;99.90;;;;;;6091960;23;20597;-93
2021/08/14 00:31:40;;;;;;;7.20;6.60;;;19.30;99.90;;;;;;6092867;23;20523;-93
2021/08/14 00:34:08;;;;;;;8.40;7.57;;;19.30;99.90;;;;;;6090420;23;20629;-93
2021/08/14 00:36:34;;;;;;;9.07;8.17;;;19.30;99.90;;;;;;6088566;23;20995;-92
2021/08/14 00:39:01;;;;;;;7.67;7.07;;;19.30;99.90;;;;;;6086320;23;20562;-91
2021/08/14 00:41:32;;;;;;;8.00;7.30;;;19.30;99.90;;;;;;6089355;23;20610;-92
2021/08/14 00:44:01;;;;;;;7.77;7.07;;;19.30;99.90;;;;;;6089835;23;21237;-92
2021/08/14 00:46:28;;;;;;;8.10;7.30;;;19.30;99.90;;;;;;6091760;23;20632;-93
2021/08/14 00:48:56;;;;;;;7.60;6.90;;;19.30;99.90;;;;;;6092711;23;21160;-92
2021/08/14 00:51:23;;;;;;;8.20;7.40;;;19.20;99.90;;;;;;6092720;23;20650;-93
2021/08/14 00:53:49;;;;;;;7.80;7.20;;;19.20;99.90;;;;;;6092630;23;20622;-92
2021/08/14 00:56:19;;;;;;;8.70;8.00;;;19.10;99.90;;;;;;6091098;23;20602;-92
2021/08/14 00:58:48;;;;;;;8.90;8.10;;;19.10;99.90;;;;;;6092290;23;20590;-92
2021/08/14 01:01:16;;;;;;;8.67;8.00;;;19.10;99.90;;;;;;6092855;23;20617;-93
2021/08/14 01:03:45;;;;;;;8.10;7.40;;;19.10;99.90;;;;;;6094376;23;20593;-92
2021/08/14 01:06:13;;;;;;;9.63;8.80;;;19.00;99.90;;;;;;6094310;23;20928;-91
2021/08/14 01:08:44;;;;;;;9.17;8.33;;;19.00;99.90;;;;;;6094459;23;20590;-92
2021/08/14 01:11:13;;;;;;;8.93;7.97;;;19.00;99.90;;;;;;6092786;23;21348;-93
2021/08/14 01:13:40;;;;;;;9.10;8.23;;;19.00;99.90;;;;;;6092832;23;20581;-92
2021/08/14 01:16:09;;;;;;;9.13;8.03;;;18.90;99.90;;;;;;6091531;23;20597;-92
2021/08/14 01:18:39;;;;;;;8.70;8.03;;;18.90;99.90;;;;;;6093019;23;20604;-93
2021/08/14 01:21:06;;;;;;;8.83;8.03;;;18.90;99.90;;;;;;6094332;23;20598;-93
2021/08/14 01:23:33;;;;;;;9.43;8.60;;;18.90;99.90;;;;;;6093332;23;20680;-92
2021/08/14 01:26:05;;;;;;;9.20;8.30;;;18.80;99.90;;;;;;6093313;23;20897;-93
2021/08/14 01:28:35;;;;;;;9.27;8.57;;;18.80;99.90;;;;;;6092873;23;20600;-92
2021/08/14 01:31:03;;;;;;;8.93;8.03;;;18.80;99.90;;;;;;6093977;23;20610;-93
2021/08/14 01:33:32;;;;;;;9.80;8.80;;;18.70;99.90;;;;;;6068764;23;20622;-93
2021/08/14 01:35:58;;;;;;;9.03;8.23;;;18.70;99.90;;;;;;6094254;23;20609;-92
2021/08/14 01:38:28;;;;;;;9.60;8.60;;;18.70;99.90;;;;;;6093118;23;20590;-93
2021/08/14 01:40:54;;;;;;;9.00;8.20;;;18.70;99.90;;;;;;6093336;23;20617;-93
2021/08/14 01:43:21;;;;;;;8.83;8.10;;;18.60;99.90;;;;;;6093461;23;20593;-93
2021/08/14 01:45:50;;;;;;;8.63;8.00;;;18.70;99.90;;;;;;6094059;23;20585;-93
2021/08/14 01:48:17;;;;;;;8.80;8.00;;;18.60;99.90;;;;;;6092408;23;20590;-94
2021/08/14 01:50:44;;;;;;;9.07;8.17;;;18.60;99.90;;;;;;6092784;23;20614;-93
2021/08/14 01:53:11;;;;;;;9.23;8.33;;;18.60;99.90;;;;;;6092622;23;20596;-92
2021/08/14 01:55:38;;;;;;;8.83;7.90;;;18.50;99.90;;;;;;6093710;23;20612;-92
2021/08/14 01:58:07;;;;;;;10.87;9.20;;;18.60;99.90;;;;;;6092605;23;20993;-93
2021/08/14 02:00:34;;;;;;;8.90;8.20;;;18.50;99.90;;;;;;6094185;23;20668;-93
2021/08/14 02:03:02;;;;;;;9.03;8.13;;;18.50;99.90;;;;;;6094489;23;20621;-92
2021/08/14 02:05:29;;;;;;;9.80;9.00;;;18.50;99.90;;;;;;6094192;23;20586;-92
2021/08/14 02:07:56;;;;;;;9.87;8.30;;;18.50;99.90;;;;;;6093221;23;20563;-92
2021/08/14 02:10:23;;;;;;;8.63;7.83;;;18.50;99.90;;;;;;6093733;23;20934;-93
2021/08/14 02:12:50;;;;;;;8.40;7.70;;;18.50;99.90;;;;;;6093119;23;21142;-93
2021/08/14 02:15:17;;;;;;;8.60;8.00;;;18.40;99.90;;;;;;6094383;23;20621;-92
2021/08/14 02:17:46;;;;;;;8.73;7.93;;;18.40;99.90;;;;;;6093369;23;20665;-93
2021/08/14 02:20:15;;;;;;;9.13;8.43;;;18.40;99.90;;;;;;6093998;23;20586;-93
2021/08/14 02:22:42;;;;;;;8.90;8.10;;;18.30;99.90;;;;;;6093456;23;20681;-92
2021/08/14 02:25:10;;;;;;;8.67;7.87;;;18.30;99.90;;;;;;6093804;23;20980;-92
2021/08/14 02:27:37;;;;;;;8.80;8.03;;;18.30;99.90;;;;;;6092600;23;20592;-93
2021/08/14 02:30:06;;;;;;;9.70;8.40;;;18.30;99.90;;;;;;6094172;23;20594;-93
2021/08/14 02:32:33;;;;;;;9.07;8.30;;;18.20;99.90;;;;;;6093537;23;20675;-92
2021/08/14 02:35:00;;;;;;;9.40;8.57;;;18.20;99.90;;;;;;6093836;23;20645;-92
2021/08/14 02:37:28;;;;;;;10.07;9.00;;;18.10;99.90;;;;;;6092843;23;20637;-92
2021/08/14 02:39:55;;;;;;;10.53;9.10;;;18.10;99.90;;;;;;6092540;23;20651;-92
2021/08/14 02:42:22;;;;;;;9.63;8.73;;;18.10;99.90;;;;;;6091652;23;20929;-93
2021/08/14 02:44:49;;;;;;;9.50;8.50;;;18.10;99.90;;;;;;6093289;23;21123;-92
2021/08/14 02:47:15;;;;;;;10.93;8.77;;;18.10;99.90;;;;;;6093588;23;20558;-93
2021/08/14 02:49:42;;;;;;;9.73;8.70;;;18.10;99.90;;;;;;6093843;23;20604;-92
2021/08/14 02:52:09;;;;;;;9.97;9.13;;;18.00;99.90;;;;;;6094209;23;20559;-92
2021/08/14 02:54:37;;;;;;;10.50;9.40;;;18.00;99.90;;;;;;6093287;23;20618;-93
2021/08/14 02:57:04;;;;;;;10.17;9.23;;;18.00;99.90;;;;;;6093038;23;20586;-92
2021/08/14 02:59:31;;;;;;;10.07;9.27;;;17.90;99.90;;;;;;6093171;23;20617;-92
2021/08/14 03:01:58;;;;;;;10.03;9.13;;;18.00;99.90;;;;;;6094056;23;20676;-92
2021/08/14 03:04:25;;;;;;;10.47;9.50;;;17.90;99.90;;;;;;6094700;23;20958;-92
2021/08/14 03:06:55;;;;;;;10.87;10.07;;;17.90;99.90;;;;;;6093606;23;20650;-92
2021/08/14 03:09:22;;;;;;;9.40;8.70;;;17.90;99.90;;;;;;6093850;23;20608;-92
2021/08/14 03:11:50;;;;;;;10.70;9.67;;;17.90;99.90;;;;;;6094564;23;20598;-93
2021/08/14 03:14:17;;;;;;;9.90;9.10;;;17.80;99.90;;;;;;6094652;23;20590;-92
2021/08/14 03:16:44;;;;;;;11.07;10.10;;;17.80;99.90;;;;;;6093417;23;20657;-93
2021/08/14 03:19:11;;;;;;;10.23;9.43;;;17.80;99.90;;;;;;6090861;23;20592;-94
2021/08/14 03:21:37;;;;;;;9.93;9.00;;;17.80;99.90;;;;;;6092006;23;20582;-92
2021/08/14 03:24:05;;;;;;;11.50;10.40;;;17.90;99.90;;;;;;6092419;23;20576;-93
2021/08/14 03:26:33;;;;;;;12.00;11.00;;;17.80;99.90;;;;;;6091237;23;20602;-92
2021/08/14 03:29:01;;;;;;;11.40;10.40;;;17.80;99.90;;;;;;6091866;23;20590;-92
2021/08/14 03:31:28;;;;;;;12.23;10.70;;;17.70;99.90;;;;;;6092599;23;20618;-93
2021/08/14 03:33:55;;;;;;;10.83;9.93;;;17.70;99.90;;;;;;6090929;23;20585;-93
2021/08/14 03:36:22;;;;;;;10.20;9.17;;;17.70;99.90;;;;;;6090625;23;21174;-92
2021/08/14 03:38:48;;;;;;;11.60;10.47;;;17.70;99.90;;;;;;6090620;23;20590;-93
2021/08/14 03:41:15;;;;;;;11.20;10.20;;;17.70;99.90;;;;;;6090100;23;20998;-93
2021/08/14 03:43:42;;;;;;;11.37;10.43;;;17.60;99.90;;;;;;6093873;23;20567;-93
2021/08/14 03:46:10;;;;;;;12.00;10.83;;;17.70;99.90;;;;;;6092422;23;20582;-93
2021/08/14 03:48:37;;;;;;;11.13;10.13;;;17.60;99.90;;;;;;6092757;23;20602;-93
2021/08/14 03:51:04;;;;;;;11.07;10.03;;;17.60;99.90;;;;;;6093363;23;20618;-92
2021/08/14 03:53:31;;;;;;;10.27;9.37;;;17.60;99.90;;;;;;6092885;23;20613;-93
2021/08/14 03:55:58;;;;;;;10.90;10.00;;;17.60;99.90;;;;;;6066892;23;20989;-93
2021/08/14 03:58:25;;;;;;;9.87;8.97;;;17.50;99.90;;;;;;6092353;23;20585;-92
2021/08/14 04:00:52;;;;;;;10.83;9.83;;;17.50;99.90;;;;;;6092928;23;20614;-92
2021/08/14 04:03:20;;;;;;;11.73;10.63;;;17.60;99.90;;;;;;6093624;23;20591;-93
2021/08/14 04:05:47;;;;;;;11.10;10.20;;;17.60;99.90;;;;;;6093223;23;20608;-93
2021/08/14 04:08:13;;;;;;;10.90;9.90;;;17.60;99.90;;;;;;6090139;23;20605;-92
2021/08/14 04:10:41;;;;;;;11.70;10.67;;;17.60;99.90;;;;;;6091361;23;20598;-93
2021/08/14 04:13:08;;;;;;;11.43;10.53;;;17.60;99.90;;;;;;6092232;23;20523;-93
2021/08/14 04:15:35;;;;;;;11.33;10.33;;;17.50;99.90;;;;;;6091669;23;20626;-92
2021/08/14 04:18:01;;;;;;;11.63;10.43;;;17.50;99.90;;;;;;6090966;23;20594;-93
2021/08/14 04:20:30;;;;;;;10.90;10.13;;;17.50;99.90;;;;;;6093040;23;21190;-93
2021/08/14 04:22:57;;;;;;;12.37;11.10;;;17.50;99.90;;;;;;6092622;23;20590;-93
2021/08/14 04:25:24;;;;;;;12.97;11.90;;;17.50;99.90;;;;;;6092321;23;21332;-94
2021/08/14 04:27:51;;;;;;;12.30;11.30;;;17.50;99.90;;;;;;6091944;23;20582;-93
2021/08/14 04:30:18;;;;;;;12.30;11.10;;;17.50;99.90;;;;;;6092149;23;20625;-93
2021/08/14 04:32:45;;;;;;;12.30;11.20;;;17.50;99.90;;;;;;6091037;23;21108;-93
2021/08/14 04:35:13;;;;;;;12.20;11.10;;;17.50;99.90;;;;;;6092098;23;20696;-93
2021/08/14 04:37:42;;;;;;;11.60;10.57;;;17.50;99.90;;;;;;6093572;23;20601;-93
2021/08/14 04:40:11;;;;;;;12.10;11.13;;;17.50;99.90;;;;;;6093887;23;20581;-93
2021/08/14 04:42:39;;;;;;;13.10;11.90;;;17.50;99.90;;;;;;6094507;23;20589;-92
2021/08/14 04:45:07;;;;;;;12.50;11.40;;;17.50;99.90;;;;;;6069413;23;20575;-93
2021/08/14 04:47:34;;;;;;;11.83;10.83;;;17.50;99.90;;;;;;6092697;23;20592;-92
2021/08/14 04:50:01;;;;;;;11.63;10.53;;;17.50;99.90;;;;;;6092264;23;20978;-93
2021/08/14 04:52:28;;;;;;;13.80;10.50;;;17.50;99.90;;;;;;6094611;23;20649;-93
2021/08/14 04:54:56;;;;;;;10.20;9.40;;;17.60;99.90;;;;;;6094677;23;20598;-93
2021/08/14 04:57:23;;;;;;;13.17;11.97;;;17.60;99.90;;;;;;6094145;23;20645;-94
2021/08/14 04:59:50;;;;;;;12.50;11.47;;;17.60;99.90;;;;;;6094671;23;20621;-93
2021/08/14 05:02:17;;;;;;;13.00;11.80;;;17.60;99.90;;;;;;6094276;23;20969;-94
2021/08/14 05:04:43;;;;;;;11.83;10.93;;;17.60;99.90;;;;;;6093182;23;20596;-93
2021/08/14 05:07:10;;;;;;;12.63;11.40;;;17.70;99.90;;;;;;6093987;23;20586;-93
2021/08/14 05:09:38;;;;;;;12.30;11.13;;;17.70;99.90;;;;;;6094145;23;20612;-93
2021/08/14 05:12:08;;;;;;;12.40;11.20;;;17.70;99.90;;;;;;6094389;23;20578;-93
2021/08/14 05:14:37;;;;;;;13.07;12.00;;;17.80;99.90;;;;;;6094948;23;20586;-93
2021/08/14 05:17:05;;;;;;;14.03;12.93;;;17.90;99.90;;;;;;6094887;23;20590;-93
2021/08/14 05:19:32;;;;;;;13.93;12.70;;;17.90;99.90;;;;;;6094049;23;21226;-94
2021/08/14 05:21:59;;;;;;;14.10;12.80;;;18.00;99.90;;;;;;6095123;23;20617;-94
2021/08/14 05:24:26;;;;;;;13.87;12.87;;;18.00;99.90;;;;;;6094890;23;20596;-94
2021/08/14 05:26:53;;;;;;;14.63;13.27;;;18.10;99.90;;;;;;6094089;23;20581;-93
2021/08/14 05:29:21;;;;;;;14.17;12.77;;;18.20;99.90;;;;;;6094010;23;20655;-94
2021/08/14 05:31:48;;;;;;;12.40;11.30;;;18.20;99.90;;;;;;6094485;23;20629;-93
2021/08/14 05:34:15;;;;;;;12.80;11.73;;;18.30;99.90;;;;;;6093959;23;20570;-94
2021/08/14 05:36:41;;;;;;;15.40;14.23;;;18.30;99.90;;;;;;6092027;23;20621;-93
2021/08/14 05:39:08;;;;;;;18.80;12.90;;;18.40;99.90;;;;;;6093823;23;20573;-94
2021/08/14 05:41:39;;;;;;;16.10;14.40;;;18.50;99.90;;;;;;6093367;23;20633;-93
2021/08/14 05:44:08;;;;;;;16.47;14.90;;;18.50;99.90;;;;;;6094888;23;20892;-93
2021/08/14 05:46:36;;;;;;;13.27;12.00;;;18.50;99.90;;;;;;6093814;23;20589;-94
2021/08/14 05:49:03;;;;;;;14.53;13.30;;;18.60;99.90;;;;;;6095086;23;20597;-93
2021/08/14 05:51:29;;;;;;;15.67;14.23;;;18.70;99.90;;;;;;6095315;23;20617;-93
2021/08/14 05:53:56;;;;;;;17.37;15.97;;;18.80;99.90;;;;;;6094944;23;20592;-93
2021/08/14 05:56:23;;;;;;;14.50;13.00;;;18.80;99.90;;;;;;6094374;23;20616;-94
2021/08/14 05:58:50;;;;;;;13.20;11.97;;;18.90;99.90;;;;;;6094132;23;20597;-94
2021/08/14 06:01:17;;;;;;;12.90;11.60;;;18.90;99.90;;;;;;6095448;23;20700;-94
2021/08/14 06:03:45;;;;;;;13.43;12.33;;;19.00;99.90;;;;;;6094218;23;20645;-94
2021/08/14 06:06:12;;;;;;;12.30;11.00;;;19.10;99.90;;;;;;6095021;23;20582;-94
2021/08/14 06:08:39;;;;;;;12.07;10.97;;;19.10;99.90;;;;;;6094773;23;20593;-93
2021/08/14 06:11:06;;;;;;;12.50;10.40;;;19.20;99.90;;;;;;6096775;23;21048;-93
2021/08/14 06:13:32;;;;;;;13.10;10.10;;;19.20;99.90;;;;;;6095044;23;20586;-94
2021/08/14 06:15:59;;;;;;;12.63;11.07;;;19.30;99.90;;;;;;6095436;23;20614;-93
2021/08/14 06:18:27;;;;;;;13.43;12.20;;;19.40;99.90;;;;;;6095389;23;20590;-93
2021/08/14 06:20:55;;;;;;;10.10;9.17;;;19.50;99.90;;;;;;6094205;23;20624;-93
2021/08/14 06:23:22;;;;;;;10.07;9.07;;;19.60;99.90;;;;;;6093810;23;20597;-94
2021/08/14 06:25:49;;;;;;;11.60;10.57;;;19.70;99.90;;;;;;6093397;23;20586;-94
2021/08/14 06:28:16;;;;;;;11.47;10.37;;;19.80;99.90;;;;;;6093520;23;21301;-93
2021/08/14 06:30:42;;;;;;;10.93;10.00;;;19.90;99.90;;;;;;6093504;23;20618;-93
2021/08/14 06:33:09;;;;;;;11.90;10.57;;;20.00;99.90;;;;;;6093972;23;20577;-93
2021/08/14 06:35:36;;;;;;;10.30;9.23;;;20.00;99.90;;;;;;6094314;23;20645;-93
2021/08/14 06:38:05;;;;;;;12.13;10.97;;;20.20;99.90;;;;;;6091011;23;20582;-93
2021/08/14 06:40:32;;;;;;;11.17;9.67;;;20.30;99.90;;;;;;6092931;23;20621;-93
2021/08/14 06:42:58;;;;;;;11.23;10.17;;;20.40;99.90;;;;;;6090775;23;21342;-93
2021/08/14 06:45:25;;;;;;;11.30;10.13;;;20.50;99.90;;;;;;6093418;23;20590;-94
2021/08/14 06:47:52;;;;;;;10.90;10.00;;;20.60;99.90;;;;;;6092619;23;20585;-94
2021/08/14 06:50:19;;;;;;;12.43;11.17;;;20.70;99.90;;;;;;6093265;23;20618;-93
2021/08/14 06:52:48;;;;;;;13.43;12.17;;;20.70;99.90;;;;;;6093356;23;20589;-93
2021/08/14 06:55:17;;;;;;;12.60;11.53;;;20.90;99.90;;;;;;6093563;23;20593;-94
2021/08/14 06:57:43;;;;;;;10.57;9.47;;;21.00;99.90;;;;;;6066634;23;20578;-92
2021/08/14 07:00:11;;;;;;;12.10;11.07;;;21.10;99.90;;;;;;6092627;23;20701;-92
2021/08/14 07:02:41;;;;;;;12.17;9.80;;;21.30;99.90;;;;;;6092401;23;20594;-95
2021/08/14 07:05:10;;;;;;;9.73;8.83;;;21.30;99.90;;;;;;6093901;23;20594;-93
2021/08/14 07:07:37;;;;;;;10.23;9.23;;;21.40;99.90;;;;;;6092301;23;20616;-92
2021/08/14 07:10:04;;;;;;;10.47;9.60;;;21.50;99.90;;;;;;6094321;23;20632;-93
2021/08/14 07:12:32;;;;;;;12.50;9.37;;;21.60;99.90;;;;;;6092869;23;20913;-94
2021/08/14 07:15:00;;;;;;;10.33;9.27;;;21.70;99.90;;;;;;6068878;23;20579;-93
2021/08/14 07:17:27;;;;;;;11.80;10.60;;;21.80;99.90;;;;;;6093156;23;20918;-93
2021/08/14 07:19:54;;;;;;;10.23;9.00;;;21.90;99.90;;;;;;6093805;23;21170;-93
2021/08/14 07:22:20;;;;;;;11.23;10.07;;;22.00;99.90;;;;;;6093171;23;20557;-92
2021/08/14 07:24:47;;;;;;;13.40;9.53;;;22.00;99.90;;;;;;6066139;23;20673;-94
2021/08/14 07:27:14;;;;;;;11.23;10.00;;;22.20;99.90;;;;;;6087256;23;20578;-93
2021/08/14 07:29:42;;;;;;;10.73;9.93;;;22.20;99.90;;;;;;6089142;23;20621;-93
2021/08/14 07:32:11;;;;;;;9.80;8.80;;;22.30;99.90;;;;;;6092920;23;21149;-94
2021/08/14 07:34:38;;;;;;;10.73;9.83;;;22.40;99.90;;;;;;6092693;23;20941;-93
2021/08/14 07:37:05;;;;;;;10.13;9.23;;;22.50;99.90;;;;;;6092926;23;20610;-92
2021/08/14 07:39:31;;;;;;;10.53;9.43;;;22.50;99.90;;;;;;6092476;23;20622;-94
2021/08/14 07:41:58;;;;;;;10.50;9.60;;;22.70;99.90;;;;;;6092360;23;20588;-94
2021/08/14 07:44:25;;;;;;;11.80;10.70;;;22.80;99.90;;;;;;6093181;23;20596;-93
2021/08/14 07:46:54;;;;;;;10.13;9.20;;;22.90;99.90;;;;;;6093697;23;21137;-94
2021/08/14 07:49:21;;;;;;;10.40;9.17;;;22.90;99.90;;;;;;6092323;23;20562;-94
2021/08/14 07:51:50;;;;;;;10.20;9.40;;;23.00;99.90;;;;;;6061084;23;20594;-93
2021/08/14 07:54:16;;;;;;;10.03;9.03;;;23.20;99.90;;;;;;6087427;23;20626;-93
2021/08/14 07:56:43;;;;;;;9.63;8.80;;;23.20;99.90;;;;;;6092393;23;20614;-94
2021/08/14 07:59:10;;;;;;;10.07;8.40;;;23.40;99.90;;;;;;6091411;23;20586;-94
2021/08/14 08:01:37;;;;;;;9.97;9.07;;;23.50;99.90;;;;;;6092757;23;20621;-94
2021/08/14 08:04:05;;;;;;;11.13;8.73;;;23.60;99.90;;;;;;6092594;23;20582;-93
2021/08/14 08:06:32;;;;;;;8.37;7.57;;;23.70;99.90;;;;;;6092339;23;20577;-93
2021/08/14 08:08:59;;;;;;;10.40;9.60;;;23.70;99.90;;;;;;6091599;23;20589;-93
2021/08/14 08:11:26;;;;;;;10.20;9.20;;;23.80;99.90;;;;;;6092622;23;20614;-94
2021/08/14 08:13:53;;;;;;;9.10;8.40;;;24.00;99.90;;;;;;6091441;23;20677;-93
2021/08/14 08:16:20;;;;;;;13.27;7.90;;;24.10;99.90;;;;;;6092261;23;20617;-94
2021/08/14 08:18:47;;;;;;;8.27;7.67;;;24.20;99.90;;;;;;6091802;23;20575;-93
2021/08/14 08:21:15;;;;;;;8.80;8.10;;;24.30;99.90;;;;;;6092399;23;20632;-93
2021/08/14 08:23:41;;;;;;;9.70;8.57;;;24.40;99.90;;;;;;6091987;23;20623;-94
2021/08/14 08:26:09;;;;;;;11.67;7.37;;;24.50;99.90;;;;;;6092824;23;21099;-92
2021/08/14 08:28:35;;;;;;;8.53;6.70;;;24.50;99.90;;;;;;6090952;23;20561;-93
2021/08/14 08:31:03;;;;;;;8.03;7.43;;;24.60;99.90;;;;;;6092577;23;20601;-94
2021/08/14 08:33:29;;;;;;;7.97;7.27;;;24.80;99.90;;;;;;6066593;23;20593;-93
2021/08/14 08:35:56;;;;;;;8.43;7.67;;;24.90;99.90;;;;;;6093182;23;20882;-93
2021/08/14 08:38:26;;;;;;;8.60;7.30;;;25.00;99.90;;;;;;6089912;23;20593;-93
2021/08/14 08:40:53;;;;;;;9.03;8.10;;;25.10;99.90;;;;;;6089986;23;20692;-92
2021/08/14 08:43:22;;;;;;;9.40;7.70;;;25.20;99.90;;;;;;6092464;23;20586;-93
2021/08/14 08:45:49;;;;;;;8.77;8.17;;;25.40;99.90;;;;;;6092664;23;20519;-93
2021/08/14 08:48:19;;;;;;;7.70;7.00;;;25.40;99.90;;;;;;6066490;23;21476;-92
2021/08/14 08:50:48;;;;;;;8.17;6.90;;;25.60;99.90;;;;;;6092957;23;21151;-93
2021/08/14 08:53:15;;;;;;;8.63;7.83;;;25.70;99.90;;;;;;6092533;23;20586;-93
2021/08/14 08:55:47;;;;;;;9.20;7.97;;;25.70;99.90;;;;;;6093000;23;20592;-94
2021/08/14 08:58:14;;;;;;;7.63;7.03;;;25.90;99.90;;;;;;6091278;23;20637;-94
2021/08/14 09:00:41;;;;;;;7.63;7.03;;;25.90;99.90;;;;;;6092241;23;21388;-94
2021/08/14 09:03:11;;;;;;;9.53;7.50;;;26.10;99.90;;;;;;6090782;23;20574;-94
2021/08/14 09:05:52;;;;;;;8.47;7.77;;;26.20;99.90;;;;;;6062629;23;20939;-94
2021/08/14 09:08:19;;;;;;;8.50;7.63;;;26.30;99.90;;;;;;6089837;23;20518;-93
2021/08/14 09:10:47;;;;;;;7.83;7.03;;;26.40;99.90;;;;;;6092800;23;20945;-94
2021/08/14 09:13:16;;;;;;;7.87;6.40;;;26.50;99.90;;;;;;6092563;23;20926;-94
2021/08/14 09:15:43;;;;;;;7.60;6.10;;;26.60;99.90;;;;;;6090744;23;21165;-94
2021/08/14 09:18:12;;;;;;;8.03;6.33;;;26.60;99.90;;;;;;6091085;23;20610;-94
2021/08/14 09:20:48;;;;;;;7.57;6.40;;;26.80;99.90;;;;;;6090364;23;20618;-94
2021/08/14 09:23:16;;;;;;;6.50;6.00;;;27.00;99.90;;;;;;6092345;23;20612;-94
2021/08/14 09:25:45;;;;;;;6.63;6.03;;;27.10;99.90;;;;;;6094485;23;20590;-94
2021/08/14 09:28:16;;;;;;;6.60;6.07;;;27.20;99.90;;;;;;6094087;23;20590;-93
2021/08/14 09:30:50;;;;;;;6.63;6.00;;;27.30;99.90;;;;;;6094014;23;21224;-94
2021/08/14 09:33:19;;;;;;;6.90;6.20;;;27.30;99.90;;;;;;6094627;23;20637;-93
2021/08/14 09:35:46;;;;;;;7.37;6.63;;;27.50;99.90;;;;;;6094481;23;20590;-94
2021/08/14 09:38:16;;;;;;;6.57;5.97;;;27.50;99.90;;;;;;6092789;23;20661;-94
2021/08/14 09:40:44;;;;;;;6.90;6.20;;;27.70;99.90;;;;;;6094010;23;21166;-92
2021/08/14 09:43:13;;;;;;;7.23;6.73;;;27.90;99.70;;;;;;6093233;23;20593;-93
2021/08/14 09:45:55;;;;;;;7.80;7.20;;;27.90;99.80;;;;;;6093486;23;20618;-93
2021/08/14 09:48:23;;;;;;;7.13;6.33;;;28.00;99.90;;;;;;6094726;23;21085;-92
2021/08/14 09:50:51;;;;;;;7.50;6.80;;;28.10;99.90;;;;;;6067553;23;20614;-93
2021/08/14 09:53:20;;;;;;;7.03;6.53;;;28.30;99.90;;;;;;6087139;23;20594;-94
2021/08/14 09:55:52;;;;;;;7.17;6.47;;;28.30;99.90;;;;;;6090924;23;20593;-93
2021/08/14 09:58:21;;;;;;;7.40;6.50;;;28.40;99.90;;;;;;6091527;23;21139;-94
2021/08/14 10:00:50;;;;;;;8.20;7.47;;;28.60;98.70;;;;;;6092547;23;20999;-93
2021/08/14 10:03:18;;;;;;;8.07;7.37;;;28.70;98.50;;;;;;6093274;23;20867;-93
2021/08/14 10:05:46;;;;;;;8.93;6.90;;;28.80;98.00;;;;;;6093468;23;21135;-93
2021/08/14 10:08:13;;;;;;;6.90;6.40;;;28.90;98.90;;;;;;6094071;23;20569;-93
2021/08/14 10:10:40;;;;;;;8.10;6.40;;;29.00;99.80;;;;;;6093060;23;20641;-93
2021/08/14 10:13:07;;;;;;;7.50;6.50;;;29.20;98.10;;;;;;6093288;23;20597;-93
2021/08/14 10:15:35;;;;;;;7.10;6.50;;;29.40;97.00;;;;;;6092390;23;21171;-93
2021/08/14 10:18:03;;;;;;;6.90;6.40;;;29.50;96.60;;;;;;6087781;23;20605;-93
2021/08/14 10:20:34;;;;;;;7.33;6.73;;;29.70;96.50;;;;;;6091523;23;20669;-93
2021/08/14 10:23:03;;;;;;;10.53;7.73;;;29.90;96.00;;;;;;6092752;23;20530;-92
2021/08/14 10:25:31;;;;;;;8.03;7.40;;;30.10;95.00;;;;;;6092597;23;20559;-92
2021/08/14 10:28:01;;;;;;;7.97;7.23;;;30.20;94.70;;;;;;6091961;23;20594;-93
2021/08/14 10:30:42;;;;;;;7.33;6.73;;;30.40;95.60;;;;;;6066375;23;20681;-93
2021/08/14 10:33:10;;;;;;;8.17;7.47;;;30.60;93.90;;;;;;6092211;23;20573;-92
2021/08/14 10:35:41;;;;;;;9.30;6.80;;;30.70;93.50;;;;;;6092648;23;21135;-92
2021/08/14 10:38:38;;;;;;;7.80;7.20;;;30.80;93.30;;;;;;6091216;23;20728;-92
2021/08/14 10:41:05;;;;;;;7.90;7.27;;;31.00;93.50;;;;;;6090517;23;20626;-93
2021/08/14 10:43:58;;;;;;;7.87;7.07;;;31.10;92.70;;;;;;6092100;23;20562;-92
2021/08/14 10:46:36;;;;;;;7.67;7.00;;;31.40;93.30;;;;;;6091693;23;20595;-92
2021/08/14 10:49:06;;;;;;;8.60;8.00;;;31.50;92.20;;;;;;6092296;23;20613;-93
2021/08/14 10:52:14;;;;;;;11.50;7.30;;;31.80;92.20;;;;;;6092491;23;20625;-93
2021/08/14 10:55:12;;;;;;;9.33;7.67;;;31.90;91.10;;;;;;6024459;23;21084;-94
2021/08/14 10:57:40;;;;;;;7.30;6.77;;;32.30;90.30;;;;;;6089995;23;21524;-92
2021/08/14 11:00:19;;;;;;;7.70;7.00;;;32.50;90.00;;;;;;6091086;23;20617;-93
2021/08/14 11:03:09;;;;;;;7.50;6.90;;;32.80;90.30;;;;;;6091419;23;20909;-93
2021/08/14 11:05:38;;;;;;;8.27;7.67;;;33.10;86.90;;;;;;6091273;23;20516;-93
2021/08/14 11:08:25;;;;;;;8.00;7.10;;;33.20;85.90;;;;;;6084865;23;20563;-94
2021/08/14 11:10:55;;;;;;;11.17;6.63;;;33.50;84.80;;;;;;6091288;23;21192;-93
2021/08/14 11:13:42;;;;;;;8.70;7.37;;;33.70;84.30;;;;;;6092281;23;20523;-93
2021/08/14 11:16:10;;;;;;;9.03;7.50;;;34.10;83.10;;;;;;6091469;23;20566;-93
2021/08/14 11:18:51;;;;;;;8.87;7.93;;;34.30;83.40;;;;;;6090808;23;20582;-92
2021/08/14 11:21:18;;;;;;;8.40;7.70;;;34.00;81.00;;;;;;6091744;23;20602;-93
2021/08/14 11:23:57;;;;;;;8.17;7.33;;;34.50;81.40;;;;;;6091886;23;20589;-93
2021/08/14 11:26:35;;;;;;;7.27;6.77;;;35.00;81.40;;;;;;6092243;23;20624;-93
2021/08/14 11:29:02;;;;;;;8.07;7.27;;;35.20;77.70;;;;;;6091700;23;20549;-93
2021/08/14 11:31:30;;;;;;;7.27;6.77;;;35.50;78.70;;;;;;6085631;23;20594;-93
2021/08/14 11:34:12;;;;;;;7.57;6.87;;;35.40;76.60;;;;;;6087132;23;20596;-93
2021/08/14 11:36:39;;;;;;;8.60;7.90;;;35.70;76.00;;;;;;6090165;23;20666;-94
2021/08/14 11:39:08;;;;;;;6.90;6.40;;;36.00;74.30;;;;;;6064228;23;20628;-94
2021/08/14 11:41:37;;;;;;;8.00;6.50;;;36.30;75.10;;;;;;6091190;23;21218;-94
2021/08/14 11:44:05;;;;;;;7.37;6.67;;;36.60;73.40;;;;;;6091690;23;20613;-93
2021/08/14 11:46:33;;;;;;;10.03;7.07;;;36.90;72.90;;;;;;6090673;23;20562;-92
2021/08/14 11:49:04;;;;;;;8.00;7.30;;;36.80;70.80;;;;;;6090133;23;20631;-94
2021/08/14 11:51:31;;;;;;;9.97;8.50;;;36.80;70.30;;;;;;6091389;23;21519;-93
2021/08/14 11:54:06;;;;;;;11.93;7.10;;;36.50;70.80;;;;;;6090657;23;20589;-93
2021/08/14 11:56:34;;;;;;;7.50;6.80;;;36.30;70.90;;;;;;6090781;23;20569;-92
2021/08/14 11:59:02;;;;;;;7.80;7.20;;;36.10;71.60;;;;;;6090563;23;20621;-93
2021/08/14 12:01:30;;;;;;;7.80;6.93;;;35.50;71.10;;;;;;6090675;23;20623;-92
2021/08/14 12:03:58;;;;;;;7.63;6.93;;;35.30;71.80;;;;;;6090677;23;20519;-93
2021/08/14 12:06:29;;;;;;;8.30;7.60;;;35.30;71.90;;;;;;6091343;23;20573;-93
2021/08/14 12:08:58;;;;;;;7.13;6.63;;;35.40;71.70;;;;;;6090718;23;20573;-93
2021/08/14 12:11:27;;;;;;;7.30;6.70;;;36.00;71.50;;;;;;6091552;23;20652;-94
2021/08/14 12:14:15;;;;;;;7.27;6.63;;;36.40;71.50;;;;;;6091776;23;20585;-93
2021/08/14 12:16:44;;;;;;;7.33;6.50;;;36.90;69.20;;;;;;6090412;23;20561;-94
2021/08/14 12:19:15;;;;;;;9.43;7.70;;;36.80;69.20;;;;;;6083089;23;20605;-93
2021/08/14 12:21:43;;;;;;;7.20;6.50;;;37.20;68.10;;;;;;6090671;23;20585;-93
2021/08/14 12:24:10;;;;;;;7.80;7.10;;;37.70;68.50;;;;;;6091027;23;20586;-94
2021/08/14 12:26:37;;;;;;;7.13;6.63;;;38.10;66.80;;;;;;6090177;23;20260;-93
2021/08/14 12:29:06;;;;;;;8.63;6.97;;;38.00;64.60;;;;;;6090661;23;20184;-92
2021/08/14 12:31:46;;;;;;;7.30;6.70;;;38.20;65.30;;;;;;6091842;23;20201;-94
2021/08/14 12:34:28;;;;;;;8.73;7.07;;;38.60;66.70;;;;;;6091591;23;20181;-93
2021/08/14 12:37:03;;;;;;;7.10;6.60;;;39.10;63.90;;;;;;6091669;23;20520;-93
2021/08/14 12:39:55;;;;;;;7.45;6.88;;;39.40;63.80;;;;;;6092388;23;20172;-93
2021/08/14 12:42:23;;;;;;;7.45;6.75;;;39.50;61.30;;;;;;6091986;23;20174;-93
2021/08/14 12:44:50;;;;;;;7.53;7.00;;;39.40;60.40;;;;;;6084900;23;20252;-93
2021/08/14 12:47:27;;;;;;;6.82;6.32;;;39.60;60.50;;;;;;6086367;23;20274;-92
2021/08/14 12:50:16;;;;;;;7.70;7.10;;;40.00;58.80;;;;;;6086428;23;20198;-93